sensor_id;sensor_type;location;lat;lon;timestamp;temperature;humidity
32107;DHT22;18622;51.998;10.440;2023-03-11T07:00:26;2.50;99.90
32107;DHT22;18622;51.998;10.440;2023-03-11T07:02:56;2.50;99.90
32107;DHT22;18622;51.998;10.440;2023-03-11T07:05:23;2.60;99.90
32107;DHT22;18622;51.998;10.440;2023-03-11T07:07:53;2.70;99.90
32107;DHT22;18622;51.998;10.440;2023-03-11T07:10:21;2.80;99.90
32107;DHT22;18622;51.998;10.440;2023-03-11T07:12:49;2.80;99.90
32107;DHT22;18622;51.998;10.440;2023-03-11T07:15:17;2.80;99.90
32107;DHT22;18622;51.998;10.440;2023-03-11T07:17:44;2.80;99.90
32107;DHT22;18622;51.998;10.440;2023-03-11T07:20:12;2.80;99.90
32107;DHT22;18622;51.998;10.440;2023-03-11T07:22:40;2.90;99.90
32107;DHT22;18622;51.998;10.440;2023-03-11T07:25:08;3.00;99.90
32107;DHT22;18622;51.998;10.440;2023-03-11T07:27:36;3.00;99.90
32107;DHT22;18622;51.998;10.440;2023-03-11T07:30:04;3.00;99.90
32107;DHT22;18622;51.998;10.440;2023-03-11T07:32:31;3.10;99.90
32107;DHT22;18622;51.998;10.440;2023-03-11T07:34:59;3.10;99.90
32107;DHT22;18622;51.998;10.440;2023-03-11T07:37:27;3.20;99.90
32107;DHT22;18622;51.998;10.440;2023-03-11T07:39:55;3.20;99.90
32107;DHT22;18622;51.998;10.440;2023-03-11T07:42:23;3.30;99.90
32107;DHT22;18622;51.998;10.440;2023-03-11T07:44:50;3.40;99.90
32107;DHT22;18622;51.998;10.440;2023-03-11T07:47:18;3.40;99.90
32107;DHT22;18622;51.998;10.440;2023-03-11T07:49:46;3.40;99.90
32107;DHT22;18622;51.998;10.440;2023-03-11T07:52:14;3.50;99.90
32107;DHT22;18622;51.998;10.440;2023-03-11T07:54:42;3.50;99.90
32107;DHT22;18622;51.998;10.440;2023-03-11T07:57:10;3.50;99.90
32107;DHT22;18622;51.998;10.440;2023-03-11T07:59:39;3.50;99.90
32107;DHT22;18622;51.998;10.440;2023-03-11T08:02:09;3.50;99.90
32107;DHT22;18622;51.998;10.440;2023-03-11T08:04:37;3.50;99.90
32107;DHT22;18622;51.998;10.440;2023-03-11T08:07:05;3.50;99.90
32107;DHT22;18622;51.998;10.440;2023-03-11T08:09:34;3.60;99.90
32107;DHT22;18622;51.998;10.440;2023-03-11T08:12:01;3.60;99.90
32107;DHT22;18622;51.998;10.440;2023-03-11T08:14:29;3.60;99.90
32107;DHT22;18622;51.998;10.440;2023-03-11T08:16:57;3.60;99.90
32107;DHT22;18622;51.998;10.440;2023-03-11T08:19:25;3.60;99.90
32107;DHT22;18622;51.998;10.440;2023-03-11T08:21:53;3.70;99.90
32107;DHT22;18622;51.998;10.440;2023-03-11T08:24:20;3.70;99.90
32107;DHT22;18622;51.998;10.440;2023-03-11T08:26:48;3.80;99.90
32107;DHT22;18622;51.998;10.440;2023-03-11T08:29:16;3.80;99.90
32107;DHT22;18622;51.998;10.440;2023-03-11T08:31:44;3.80;99.90
32107;DHT22;18622;51.998;10.440;2023-03-11T08:34:12;3.90;99.90
32107;DHT22;18622;51.998;10.440;2023-03-11T08:36:40;4.00;99.90
32107;DHT22;18622;51.998;10.440;2023-03-11T08:39:08;4.10;99.90
32107;DHT22;18622;51.998;10.440;2023-03-11T08:41:35;4.10;99.90
32107;DHT22;18622;51.998;10.440;2023-03-11T08:44:03;4.10;99.90
32107;DHT22;18622;51.998;10.440;2023-03-11T08:46:33;4.10;99.90
32107;DHT22;18622;51.998;10.440;2023-03-11T08:49:02;4.10;99.90
32107;DHT22;18622;51.998;10.440;2023-03-11T08:51:31;4.30;99.90
32107;DHT22;18622;51.998;10.440;2023-03-11T08:54:00;4.30;99.90
32107;DHT22;18622;51.998;10.440;2023-03-11T08:56:28;4.40;99.90
32107;DHT22;18622;51.998;10.440;2023-03-11T08:58:56;4.40;99.90
32107;DHT22;18622;51.998;10.440;2023-03-11T09:01:24;4.50;99.90
32107;DHT22;18622;51.998;10.440;2023-03-11T09:03:51;4.60;99.90
32107;DHT22;18622;51.998;10.440;2023-03-11T09:06:20;4.80;99.90
32107;DHT22;18622;51.998;10.440;2023-03-11T09:08:48;5.00;99.90
32107;DHT22;18622;51.998;10.440;2023-03-11T09:11:17;5.10;99.90
32107;DHT22;18622;51.998;10.440;2023-03-11T09:13:47;5.30;99.90
32107;DHT22;18622;51.998;10.440;2023-03-11T09:16:20;5.50;99.90
32107;DHT22;18622;51.998;10.440;2023-03-11T09:18:48;5.70;99.90
32107;DHT22;18622;51.998;10.440;2023-03-11T09:21:16;5.80;99.90
32107;DHT22;18622;51.998;10.440;2023-03-11T09:23:44;5.70;99.80
32107;DHT22;18622;51.998;10.440;2023-03-11T09:26:12;5.70;99.80
32107;DHT22;18622;51.998;10.440;2023-03-11T09:28:41;5.90;99.90
32107;DHT22;18622;51.998;10.440;2023-03-11T09:31:09;6.00;99.60
32107;DHT22;18622;51.998;10.440;2023-03-11T09:33:38;6.20;98.90
32107;DHT22;18622;51.998;10.440;2023-03-11T09:36:07;6.20;98.10
32107;DHT22;18622;51.998;10.440;2023-03-11T09:38:35;6.20;98.10
32107;DHT22;18622;51.998;10.440;2023-03-11T09:41:12;6.30;97.80
32107;DHT22;18622;51.998;10.440;2023-03-11T09:52:12;7.40;97.00
32107;DHT22;18622;51.998;10.440;2023-03-11T09:54:50;7.20;95.90
32107;DHT22;18622;51.998;10.440;2023-03-11T10:00:40;7.20;96.60
32107;DHT22;18622;51.998;10.440;2023-03-11T10:03:15;7.20;96.00
32107;DHT22;18622;51.998;10.440;2023-03-11T10:05:41;7.20;95.90
32107;DHT22;18622;51.998;10.440;2023-03-11T10:08:26;7.30;96.40
32107;DHT22;18622;51.998;10.440;2023-03-11T10:11:10;7.10;94.80
32107;DHT22;18622;51.998;10.440;2023-03-11T10:13:40;6.60;93.90
32107;DHT22;18622;51.998;10.440;2023-03-11T10:16:09;6.80;95.00
32107;DHT22;18622;51.998;10.440;2023-03-11T10:21:24;9.40;93.20
32107;DHT22;18622;51.998;10.440;2023-03-11T10:24:01;10.50;90.80
32107;DHT22;18622;51.998;10.440;2023-03-11T10:26:32;11.50;85.40
32107;DHT22;18622;51.998;10.440;2023-03-11T10:34:35;12.20;84.10
32107;DHT22;18622;51.998;10.440;2023-03-11T10:37:00;12.60;77.90
32107;DHT22;18622;51.998;10.440;2023-03-11T10:39:30;12.30;73.80
32107;DHT22;18622;51.998;10.440;2023-03-11T10:42:01;12.10;74.50
32107;DHT22;18622;51.998;10.440;2023-03-11T10:44:35;12.40;75.60
32107;DHT22;18622;51.998;10.440;2023-03-11T10:47:04;12.90;73.10
32107;DHT22;18622;51.998;10.440;2023-03-11T10:49:31;12.70;72.30
32107;DHT22;18622;51.998;10.440;2023-03-11T10:52:01;12.30;71.00
32107;DHT22;18622;51.998;10.440;2023-03-11T10:54:38;11.90;70.40
32107;DHT22;18622;51.998;10.440;2023-03-11T10:57:22;11.70;72.80
32107;DHT22;18622;51.998;10.440;2023-03-11T10:59:53;12.70;75.50
32107;DHT22;18622;51.998;10.440;2023-03-11T11:07:50;14.80;65.40
32107;DHT22;18622;51.998;10.440;2023-03-11T11:10:21;14.50;63.80
32107;DHT22;18622;51.998;10.440;2023-03-11T11:15:57;13.50;66.10
32107;DHT22;18622;51.998;10.440;2023-03-11T11:18:27;13.40;66.80
32107;DHT22;18622;51.998;10.440;2023-03-11T11:21:12;13.60;62.70
32107;DHT22;18622;51.998;10.440;2023-03-11T11:23:39;13.50;65.50
32107;DHT22;18622;51.998;10.440;2023-03-11T11:26:25;13.70;62.30
32107;DHT22;18622;51.998;10.440;2023-03-11T11:29:13;14.30;65.60
32107;DHT22;18622;51.998;10.440;2023-03-11T11:31:43;14.90;60.20
32107;DHT22;18622;51.998;10.440;2023-03-11T11:34:27;15.00;60.30
32107;DHT22;18622;51.998;10.440;2023-03-11T11:36:57;15.20;62.00
32107;DHT22;18622;51.998;10.440;2023-03-11T11:39:27;15.70;58.10
32107;DHT22;18622;51.998;10.440;2023-03-11T11:41:55;16.10;59.90
32107;DHT22;18622;51.998;10.440;2023-03-11T11:44:28;16.80;60.30
32107;DHT22;18622;51.998;10.440;2023-03-11T11:46:58;17.40;59.00
32107;DHT22;18622;51.998;10.440;2023-03-11T11:49:31;16.80;53.60
32107;DHT22;18622;51.998;10.440;2023-03-11T11:52:14;15.80;56.60
32107;DHT22;18622;51.998;10.440;2023-03-11T11:54:41;16.30;56.00
32107;DHT22;18622;51.998;10.440;2023-03-11T11:57:13;17.20;55.20
32107;DHT22;18622;51.998;10.440;2023-03-11T11:59:42;17.70;51.40
32107;DHT22;18622;51.998;10.440;2023-03-11T12:02:28;17.10;49.40
32107;DHT22;18622;51.998;10.440;2023-03-11T12:08:16;14.40;50.60
32107;DHT22;18622;51.998;10.440;2023-03-11T12:13:48;12.50;53.70
32107;DHT22;18622;51.998;10.440;2023-03-11T12:19:21;12.60;54.90
32107;DHT22;18622;51.998;10.440;2023-03-11T12:30:18;13.80;53.40
32107;DHT22;18622;51.998;10.440;2023-03-11T12:32:56;14.40;53.90
32107;DHT22;18622;51.998;10.440;2023-03-11T12:35:25;14.00;51.80
32107;DHT22;18622;51.998;10.440;2023-03-11T12:38:15;12.90;52.20
32107;DHT22;18622;51.998;10.440;2023-03-11T12:46:05;14.00;49.70
32107;DHT22;18622;51.998;10.440;2023-03-11T12:48:41;14.10;50.50
32107;DHT22;18622;51.998;10.440;2023-03-11T12:51:04;15.30;48.60
32107;DHT22;18622;51.998;10.440;2023-03-11T12:53:48;15.20;46.00
32107;DHT22;18622;51.998;10.440;2023-03-11T12:59:01;13.20;48.30
32107;DHT22;18622;51.998;10.440;2023-03-11T13:01:35;12.20;50.10
32107;DHT22;18622;51.998;10.440;2023-03-11T13:04:23;11.70;52.10
32107;DHT22;18622;51.998;10.440;2023-03-11T13:09:43;10.50;55.70
32107;DHT22;18622;51.998;10.440;2023-03-11T13:18:11;14.80;51.30
32107;DHT22;18622;51.998;10.440;2023-03-11T13:20:43;16.50;49.30
32107;DHT22;18622;51.998;10.440;2023-03-11T13:23:22;18.00;46.10
32107;DHT22;18622;51.998;10.440;2023-03-11T13:28:46;19.60;41.50
32107;DHT22;18622;51.998;10.440;2023-03-11T13:33:52;19.90;40.00
32107;DHT22;18622;51.998;10.440;2023-03-11T13:39:25;20.10;38.90
32107;DHT22;18622;51.998;10.440;2023-03-11T13:41:51;20.00;37.40
32107;DHT22;18622;51.998;10.440;2023-03-11T13:44:23;19.80;37.20
32107;DHT22;18622;51.998;10.440;2023-03-11T13:46:57;19.70;36.10
32107;DHT22;18622;51.998;10.440;2023-03-11T13:52:28;18.20;37.60
32107;DHT22;18622;51.998;10.440;2023-03-11T13:57:55;16.40;37.90
32107;DHT22;18622;51.998;10.440;2023-03-11T14:00:25;15.60;38.60
32107;DHT22;18622;51.998;10.440;2023-03-11T14:03:00;15.40;41.00
32107;DHT22;18622;51.998;10.440;2023-03-11T14:05:36;15.90;40.40
32107;DHT22;18622;51.998;10.440;2023-03-11T14:08:25;16.40;39.30
32107;DHT22;18622;51.998;10.440;2023-03-11T14:11:11;16.60;39.00
32107;DHT22;18622;51.998;10.440;2023-03-11T14:13:25;16.50;38.20
32107;DHT22;18622;51.998;10.440;2023-03-11T14:16:08;15.40;40.50
32107;DHT22;18622;51.998;10.440;2023-03-11T14:19:05;14.70;41.00
32107;DHT22;18622;51.998;10.440;2023-03-11T14:21:42;14.20;41.80
32107;DHT22;18622;51.998;10.440;2023-03-11T14:24:15;14.00;41.70
32107;DHT22;18622;51.998;10.440;2023-03-11T14:26:44;14.30;42.80
32107;DHT22;18622;51.998;10.440;2023-03-11T14:29:19;14.60;41.60
32107;DHT22;18622;51.998;10.440;2023-03-11T14:31:47;14.00;43.30
32107;DHT22;18622;51.998;10.440;2023-03-11T14:34:22;14.20;42.70
32107;DHT22;18622;51.998;10.440;2023-03-11T14:36:58;14.60;43.30
32107;DHT22;18622;51.998;10.440;2023-03-11T14:39:36;14.90;42.20
32107;DHT22;18622;51.998;10.440;2023-03-11T14:50:08;12.20;47.70
32107;DHT22;18622;51.998;10.440;2023-03-11T14:52:42;12.50;44.80
32107;DHT22;18622;51.998;10.440;2023-03-11T14:55:30;12.10;45.80
32107;DHT22;18622;51.998;10.440;2023-03-11T14:58:07;11.90;47.60
32107;DHT22;18622;51.998;10.440;2023-03-11T15:00:34;12.50;45.70
32107;DHT22;18622;51.998;10.440;2023-03-11T15:03:07;12.70;46.60
32107;DHT22;18622;51.998;10.440;2023-03-11T15:05:37;12.40;47.40
32107;DHT22;18622;51.998;10.440;2023-03-11T15:08:05;11.80;48.40
32107;DHT22;18622;51.998;10.440;2023-03-11T15:10:33;11.40;47.90
32107;DHT22;18622;51.998;10.440;2023-03-11T15:13:08;11.50;48.60
32107;DHT22;18622;51.998;10.440;2023-03-11T15:15:36;11.90;46.60
32107;DHT22;18622;51.998;10.440;2023-03-11T15:18:22;12.40;46.10
32107;DHT22;18622;51.998;10.440;2023-03-11T15:23:36;13.30;44.60
32107;DHT22;18622;51.998;10.440;2023-03-11T15:26:05;13.60;44.60
32107;DHT22;18622;51.998;10.440;2023-03-11T15:28:35;13.70;43.70
32107;DHT22;18622;51.998;10.440;2023-03-11T15:33:54;13.50;43.70
32107;DHT22;18622;51.998;10.440;2023-03-11T15:36:31;13.40;44.20
32107;DHT22;18622;51.998;10.440;2023-03-11T15:41:56;12.40;47.40
32107;DHT22;18622;51.998;10.440;2023-03-11T15:44:28;12.30;47.90
32107;DHT22;18622;51.998;10.440;2023-03-11T15:46:56;12.60;47.00
32107;DHT22;18622;51.998;10.440;2023-03-11T15:49:30;13.10;46.90
32107;DHT22;18622;51.998;10.440;2023-03-11T15:51:59;13.50;46.60
32107;DHT22;18622;51.998;10.440;2023-03-11T15:54:27;13.90;45.80
32107;DHT22;18622;51.998;10.440;2023-03-11T15:56:56;14.10;44.00
32107;DHT22;18622;51.998;10.440;2023-03-11T15:59:27;14.00;42.50
32107;DHT22;18622;51.998;10.440;2023-03-11T16:01:56;13.60;43.60
32107;DHT22;18622;51.998;10.440;2023-03-11T16:04:24;13.30;45.20
32107;DHT22;18622;51.998;10.440;2023-03-11T16:06:52;13.00;44.60
32107;DHT22;18622;51.998;10.440;2023-03-11T16:09:20;12.50;44.90
32107;DHT22;18622;51.998;10.440;2023-03-11T16:11:48;12.20;45.40
32107;DHT22;18622;51.998;10.440;2023-03-11T16:14:18;11.80;46.70
32107;DHT22;18622;51.998;10.440;2023-03-11T16:16:45;11.50;46.80
32107;DHT22;18622;51.998;10.440;2023-03-11T16:19:13;10.90;48.00
32107;DHT22;18622;51.998;10.440;2023-03-11T16:21:42;9.80;49.90
32107;DHT22;18622;51.998;10.440;2023-03-11T16:24:17;8.70;51.30
32107;DHT22;18622;51.998;10.440;2023-03-11T16:26:44;7.80;53.90
32107;DHT22;18622;51.998;10.440;2023-03-11T16:29:12;7.00;56.00
32107;DHT22;18622;51.998;10.440;2023-03-11T16:31:41;6.50;57.70
32107;DHT22;18622;51.998;10.440;2023-03-11T16:34:09;6.00;58.10
32107;DHT22;18622;51.998;10.440;2023-03-11T16:36:36;5.70;59.30
32107;DHT22;18622;51.998;10.440;2023-03-11T16:39:04;5.40;60.10
32107;DHT22;18622;51.998;10.440;2023-03-11T16:41:40;5.20;60.70
32107;DHT22;18622;51.998;10.440;2023-03-11T16:44:09;5.00;61.60
32107;DHT22;18622;51.998;10.440;2023-03-11T16:46:37;4.80;62.10
32107;DHT22;18622;51.998;10.440;2023-03-11T16:49:05;4.70;62.70
32107;DHT22;18622;51.998;10.440;2023-03-11T16:51:33;4.50;63.10
32107;DHT22;18622;51.998;10.440;2023-03-11T16:54:01;4.40;64.00
32107;DHT22;18622;51.998;10.440;2023-03-11T16:56:28;4.30;64.60
32107;DHT22;18622;51.998;10.440;2023-03-11T16:58:56;4.10;65.70
32107;DHT22;18622;51.998;10.440;2023-03-11T17:01:24;4.00;65.70
32107;DHT22;18622;51.998;10.440;2023-03-11T17:03:52;3.90;66.10
32107;DHT22;18622;51.998;10.440;2023-03-11T17:06:20;3.80;66.80
32107;DHT22;18622;51.998;10.440;2023-03-11T17:08:48;3.70;67.20
32107;DHT22;18622;51.998;10.440;2023-03-11T17:11:18;3.60;67.50
32107;DHT22;18622;51.998;10.440;2023-03-11T17:13:46;3.50;67.90
32107;DHT22;18622;51.998;10.440;2023-03-11T17:16:15;3.40;68.60
32107;DHT22;18622;51.998;10.440;2023-03-11T17:18:43;3.30;69.00
32107;DHT22;18622;51.998;10.440;2023-03-11T17:21:13;3.20;69.30
32107;DHT22;18622;51.998;10.440;2023-03-11T17:23:42;3.10;69.70
32107;DHT22;18622;51.998;10.440;2023-03-11T17:26:14;3.00;70.20
32107;DHT22;18622;51.998;10.440;2023-03-11T17:28:42;2.90;70.40
32107;DHT22;18622;51.998;10.440;2023-03-11T17:31:14;2.90;70.80
32107;DHT22;18622;51.998;10.440;2023-03-11T17:33:43;2.80;71.20
32107;DHT22;18622;51.998;10.440;2023-03-11T17:36:13;2.70;71.70
32107;DHT22;18622;51.998;10.440;2023-03-11T17:38:43;2.70;71.90
32107;DHT22;18622;51.998;10.440;2023-03-11T17:41:15;2.70;72.30
32107;DHT22;18622;51.998;10.440;2023-03-11T17:43:44;2.50;72.60
32107;DHT22;18622;51.998;10.440;2023-03-11T17:46:14;2.40;72.70
32107;DHT22;18622;51.998;10.440;2023-03-11T17:48:43;2.20;73.30
32107;DHT22;18622;51.998;10.440;2023-03-11T17:51:17;2.10;74.20
32107;DHT22;18622;51.998;10.440;2023-03-11T17:53:45;1.90;75.00
32107;DHT22;18622;51.998;10.440;2023-03-11T17:56:15;1.80;76.00
32107;DHT22;18622;51.998;10.440;2023-03-11T17:58:44;1.70;76.70
32107;DHT22;18622;51.998;10.440;2023-03-11T18:01:14;1.70;77.20
32107;DHT22;18622;51.998;10.440;2023-03-11T18:03:43;1.60;77.80
32107;DHT22;18622;51.998;10.440;2023-03-11T18:06:11;1.50;79.30
32107;DHT22;18622;51.998;10.440;2023-03-11T18:08:39;1.40;80.00
32107;DHT22;18622;51.998;10.440;2023-03-11T18:11:09;1.30;81.70
32107;DHT22;18622;51.998;10.440;2023-03-11T18:13:38;1.20;82.80
32107;DHT22;18622;51.998;10.440;2023-03-11T18:16:10;1.20;85.00
32107;DHT22;18622;51.998;10.440;2023-03-11T18:18:37;1.10;86.60
32107;DHT22;18622;51.998;10.440;2023-03-11T18:21:12;1.00;88.00
32107;DHT22;18622;51.998;10.440;2023-03-11T18:23:40;0.90;90.40
32107;DHT22;18622;51.998;10.440;2023-03-11T18:26:11;0.80;91.60
32107;DHT22;18622;51.998;10.440;2023-03-11T18:28:39;0.80;92.40
32107;DHT22;18622;51.998;10.440;2023-03-11T18:31:17;0.80;93.40
32107;DHT22;18622;51.998;10.440;2023-03-11T18:33:45;0.90;93.90
32107;DHT22;18622;51.998;10.440;2023-03-11T18:36:23;0.90;94.70
32107;DHT22;18622;51.998;10.440;2023-03-11T18:38:52;1.00;95.30
32107;DHT22;18622;51.998;10.440;2023-03-11T18:41:20;1.00;95.60
32107;DHT22;18622;51.998;10.440;2023-03-11T18:43:55;1.00;95.90
32107;DHT22;18622;51.998;10.440;2023-03-11T18:46:25;1.00;96.40
32107;DHT22;18622;51.998;10.440;2023-03-11T18:48:53;1.00;96.60
32107;DHT22;18622;51.998;10.440;2023-03-11T18:51:23;1.00;97.00
32107;DHT22;18622;51.998;10.440;2023-03-11T18:53:51;1.00;97.10
32107;DHT22;18622;51.998;10.440;2023-03-11T18:56:19;1.00;97.30
32107;DHT22;18622;51.998;10.440;2023-03-11T18:58:47;1.00;97.50
32107;DHT22;18622;51.998;10.440;2023-03-11T19:01:17;1.00;97.80
32107;DHT22;18622;51.998;10.440;2023-03-11T19:03:48;1.10;98.00
32107;DHT22;18622;51.998;10.440;2023-03-11T19:06:13;1.10;98.00
32107;DHT22;18622;51.998;10.440;2023-03-11T19:08:42;1.10;98.30
32107;DHT22;18622;51.998;10.440;2023-03-11T19:11:12;1.10;98.30
32107;DHT22;18622;51.998;10.440;2023-03-11T19:13:40;1.10;98.40
32107;DHT22;18622;51.998;10.440;2023-03-11T19:16:09;1.20;98.40
32107;DHT22;18622;51.998;10.440;2023-03-11T19:18:38;1.20;98.50
32107;DHT22;18622;51.998;10.440;2023-03-11T19:21:06;1.20;98.40
32107;DHT22;18622;51.998;10.440;2023-03-11T19:23:34;1.10;98.60
32107;DHT22;18622;51.998;10.440;2023-03-11T19:26:02;1.20;98.60
32107;DHT22;18622;51.998;10.440;2023-03-11T19:28:30;1.20;98.70
32107;DHT22;18622;51.998;10.440;2023-03-11T19:30:58;1.20;98.80
32107;DHT22;18622;51.998;10.440;2023-03-11T19:33:27;1.20;98.80
32107;DHT22;18622;51.998;10.440;2023-03-11T19:35:57;1.30;98.70
32107;DHT22;18622;51.998;10.440;2023-03-11T19:38:26;1.30;98.50
32107;DHT22;18622;51.998;10.440;2023-03-11T19:41:02;1.30;98.60
32107;DHT22;18622;51.998;10.440;2023-03-11T19:43:30;1.30;98.50
32107;DHT22;18622;51.998;10.440;2023-03-11T19:48:27;1.40;98.40
32107;DHT22;18622;51.998;10.440;2023-03-11T19:50:55;1.30;98.30
32107;DHT22;18622;51.998;10.440;2023-03-11T19:53:24;1.40;98.40
32107;DHT22;18622;51.998;10.440;2023-03-11T19:55:54;1.40;98.30
32107;DHT22;18622;51.998;10.440;2023-03-11T19:58:24;1.40;98.30
32107;DHT22;18622;51.998;10.440;2023-03-11T20:00:52;1.40;98.30
32107;DHT22;18622;51.998;10.440;2023-03-11T20:03:21;1.40;98.30
32107;DHT22;18622;51.998;10.440;2023-03-11T20:05:50;1.40;98.30
32107;DHT22;18622;51.998;10.440;2023-03-11T20:08:20;1.40;98.30
32107;DHT22;18622;51.998;10.440;2023-03-11T20:10:50;1.40;98.20
32107;DHT22;18622;51.998;10.440;2023-03-11T20:13:20;1.40;98.30
32107;DHT22;18622;51.998;10.440;2023-03-11T20:18:25;1.40;98.30
32107;DHT22;18622;51.998;10.440;2023-03-11T20:20:53;1.30;98.20
32107;DHT22;18622;51.998;10.440;2023-03-11T20:23:21;1.40;98.20
32107;DHT22;18622;51.998;10.440;2023-03-11T20:25:48;1.40;98.10
32107;DHT22;18622;51.998;10.440;2023-03-11T20:28:16;1.40;98.10
32107;DHT22;18622;51.998;10.440;2023-03-11T20:30:44;1.40;98.00
32107;DHT22;18622;51.998;10.440;2023-03-11T20:33:12;1.40;98.00
32107;DHT22;18622;51.998;10.440;2023-03-11T20:35:40;1.40;98.00
32107;DHT22;18622;51.998;10.440;2023-03-11T20:38:07;1.40;98.00
32107;DHT22;18622;51.998;10.440;2023-03-11T20:40:36;1.40;98.00
32107;DHT22;18622;51.998;10.440;2023-03-11T20:43:04;1.40;98.00
32107;DHT22;18622;51.998;10.440;2023-03-11T20:45:31;1.40;98.00
32107;DHT22;18622;51.998;10.440;2023-03-11T20:47:59;1.40;98.00
32107;DHT22;18622;51.998;10.440;2023-03-11T20:50:27;1.40;98.00
32107;DHT22;18622;51.998;10.440;2023-03-11T20:52:55;1.40;98.00
32107;DHT22;18622;51.998;10.440;2023-03-11T20:55:23;1.30;98.00
32107;DHT22;18622;51.998;10.440;2023-03-11T20:57:51;1.30;97.90
32107;DHT22;18622;51.998;10.440;2023-03-11T21:00:20;1.30;98.10
32107;DHT22;18622;51.998;10.440;2023-03-11T21:02:48;1.20;98.10
32107;DHT22;18622;51.998;10.440;2023-03-11T21:05:15;1.10;98.20
32107;DHT22;18622;51.998;10.440;2023-03-11T21:07:43;1.10;98.30
32107;DHT22;18622;51.998;10.440;2023-03-11T21:10:11;1.20;98.60
32107;DHT22;18622;51.998;10.440;2023-03-11T21:12:39;1.20;98.40
32107;DHT22;18622;51.998;10.440;2023-03-11T21:15:08;1.30;98.20
32107;DHT22;18622;51.998;10.440;2023-03-11T21:17:36;1.40;98.00
32107;DHT22;18622;51.998;10.440;2023-03-11T21:20:05;1.50;97.70
32107;DHT22;18622;51.998;10.440;2023-03-11T21:22:33;1.50;97.80
32107;DHT22;18622;51.998;10.440;2023-03-11T21:25:00;1.50;97.60
32107;DHT22;18622;51.998;10.440;2023-03-11T21:27:29;1.40;97.60
32107;DHT22;18622;51.998;10.440;2023-03-11T21:29:58;1.40;97.60
32107;DHT22;18622;51.998;10.440;2023-03-11T21:32:26;1.40;97.70
32107;DHT22;18622;51.998;10.440;2023-03-11T21:34:57;1.40;97.70
32107;DHT22;18622;51.998;10.440;2023-03-11T21:37:25;1.30;97.70
32107;DHT22;18622;51.998;10.440;2023-03-11T21:39:53;1.40;97.70
32107;DHT22;18622;51.998;10.440;2023-03-11T21:42:21;1.30;97.60
32107;DHT22;18622;51.998;10.440;2023-03-11T21:44:49;1.30;97.70
32107;DHT22;18622;51.998;10.440;2023-03-11T21:47:17;1.30;97.70
32107;DHT22;18622;51.998;10.440;2023-03-11T21:49:45;1.30;97.70
32107;DHT22;18622;51.998;10.440;2023-03-11T21:52:13;1.30;97.60
32107;DHT22;18622;51.998;10.440;2023-03-11T21:54:41;1.40;97.60
32107;DHT22;18622;51.998;10.440;2023-03-11T21:57:08;1.40;97.50
32107;DHT22;18622;51.998;10.440;2023-03-11T21:59:37;1.40;97.50
